CheckWX is a tool to help pilots better visualize weather data.  It is not intended as a substitute for an official pre-flight weather briefing.

09:42:22 UTC

FYWE METAR
Eros Airport
Windhoek, Namibia
Current

42 mins ago

FYWE 280900Z 34006KT 290V030 CAVOK 30/M03 Q1025
Observed
Jan-28 @ 09:00 UTC
Wind
  • 340° at 6 KTS
Visibility
10,000+ meters
Flight Rules
VFR
Cloud Levels
  • Clear skies
Temperature
30°C / 86°F
Dewpoint
-3°C / 27°F
Humidity
11%
Altimeter
30.27" Hg
Pressure
1024.92 hPa
Previous

4 hours ago

FYWE 280600Z 00000KT CAVOK 23/00 Q1025
Observed
Jan-28 @ 06:00 UTC
Visibility
10,000+ meters
Flight Rules
VFR
Cloud Levels
  • Clear skies
Temperature
23°C / 73°F
Dewpoint
C / 32°F
Humidity
22%
Altimeter
30.27" Hg
Pressure
1024.92 hPa
Previous

5 hours ago

FYWE 280500Z 00000KT CAVOK 16/M01 Q1024
Observed
Jan-28 @ 05:00 UTC
Visibility
10,000+ meters
Flight Rules
VFR
Cloud Levels
  • Clear skies
Temperature
16°C / 61°F
Dewpoint
-1°C / 30°F
Humidity
31%
Altimeter
30.24" Hg
Pressure
1023.92 hPa